Time;durP1;ratioP1;P1;durP2;ratioP2;P2;SDS_P1;SDS_P2;PMS_P1;PMS_P2;Temp;Humidity;BMP_temperature;BMP_pressure;BME280_temperature;BME280_humidity;BME280_pressure;Samples;Min_cycle;Max_cycle;Signal;HPM_P1;HPM_P2
2021/04/25 00:01:39;;;;;;;5.05;0.40;;;;;;;4.80;36.22;102688.13;4997974;28;20126;-70
2021/04/25 00:04:09;;;;;;;7.07;0.65;;;;;;;4.99;35.86;102694.47;4999532;28;20041;-70
2021/04/25 00:06:35;;;;;;;3.35;0.20;;;;;;;4.71;36.53;102693.19;5003329;28;20502;-70
2021/04/25 00:09:01;;;;;;;4.40;0.73;;;;;;;5.40;35.16;102688.00;5011750;28;20111;-70
2021/04/25 00:11:26;;;;;;;1.67;0.22;;;;;;;5.32;35.35;102681.88;5015850;28;20100;-71
2021/04/25 00:13:52;;;;;;;6.82;0.30;;;;;;;4.87;36.03;102685.63;5015630;28;20045;-70
2021/04/25 00:16:17;;;;;;;0.75;0.30;;;;;;;5.33;35.75;102679.31;5014731;28;20044;-71
2021/04/25 00:18:43;;;;;;;7.80;0.73;;;;;;;5.18;35.83;102684.31;5014256;28;20393;-70
2021/04/25 00:21:09;;;;;;;4.05;0.28;;;;;;;4.97;36.20;102677.16;5014142;28;20494;-70
2021/04/25 00:23:34;;;;;;;2.90;0.40;;;;;;;5.21;36.18;102681.75;5011668;28;20212;-70
2021/04/25 00:26:00;;;;;;;3.80;0.38;;;;;;;4.88;36.20;102675.31;5012811;28;20045;-70
2021/04/25 00:28:25;;;;;;;3.00;0.28;;;;;;;5.28;35.14;102677.50;4998278;28;20034;-71
2021/04/25 00:30:51;;;;;;;7.57;0.20;;;;;;;5.17;36.14;102673.06;5011231;28;20052;-70
2021/04/25 00:33:16;;;;;;;7.57;0.60;;;;;;;5.39;35.30;102668.09;4993669;28;20062;-69
2021/04/25 00:35:42;;;;;;;4.18;0.20;;;;;;;5.39;35.40;102665.50;5014258;28;20093;-69
2021/04/25 00:38:08;;;;;;;9.35;0.50;;;;;;;5.47;35.21;102663.88;5013539;28;20036;-70
2021/04/25 00:40:33;;;;;;;4.05;0.20;;;;;;;4.90;36.95;102667.53;5012382;28;20119;-70
2021/04/25 00:42:59;;;;;;;7.07;0.65;;;;;;;5.49;35.45;102663.91;5012468;28;20486;-74
2021/04/25 00:45:25;;;;;;;0.55;0.22;;;;;;;5.33;36.20;102666.34;5014079;28;20033;-72
2021/04/25 00:47:51;;;;;;;1.65;0.28;;;;;;;5.41;35.90;102666.41;4997897;28;20032;-70
2021/04/25 00:50:20;;;;;;;1.42;0.10;;;;;;;5.03;36.80;102669.44;4994687;28;20235;-73
2021/04/25 00:52:48;;;;;;;2.60;0.55;;;;;;;4.86;36.96;102660.56;5016357;28;20033;-72
2021/04/25 00:55:16;;;;;;;8.00;0.25;;;;;;;4.94;36.80;102666.75;4997123;28;20630;-74
2021/04/25 00:57:42;;;;;;;3.13;0.20;;;;;;;4.69;37.69;102668.97;4978773;28;20787;-73
2021/04/25 01:00:10;;;;;;;5.82;0.40;;;;;;;4.78;37.52;102658.75;5013433;28;20034;-71
2021/04/25 01:02:37;;;;;;;3.15;0.32;;;;;;;4.75;37.63;102663.88;4998930;28;20434;-73
2021/04/25 01:05:04;;;;;;;4.13;0.25;;;;;;;4.88;37.46;102669.25;4997406;28;20525;-73
2021/04/25 01:07:30;;;;;;;5.45;0.40;;;;;;;4.78;37.18;102666.50;4979043;28;20120;-72
2021/04/25 01:09:56;;;;;;;2.45;0.77;;;;;;;4.91;37.20;102675.34;4999178;28;20117;-72
2021/04/25 01:12:22;;;;;;;6.28;0.28;;;;;;;4.87;36.88;102667.47;5013255;28;20034;-72
2021/04/25 01:14:47;;;;;;;6.47;0.30;;;;;;;5.40;35.87;102664.69;5013159;28;20032;-72
2021/04/25 01:17:13;;;;;;;3.45;0.32;;;;;;;4.97;36.26;102669.38;5013192;28;20033;-71
2021/04/25 01:19:38;;;;;;;3.03;0.10;;;;;;;4.93;36.43;102662.41;4979462;28;20041;-70
2021/04/25 01:22:04;;;;;;;4.43;0.30;;;;;;;5.32;36.12;102661.13;4999221;28;20625;-70
2021/04/25 01:24:29;;;;;;;2.42;0.30;;;;;;;5.34;36.19;102656.81;5012406;28;20033;-70
2021/04/25 01:26:55;;;;;;;7.65;0.30;;;;;;;5.45;35.85;102657.81;5010991;28;20485;-68
2021/04/25 01:29:20;;;;;;;4.75;0.40;;;;;;;5.58;35.48;102654.47;5013331;28;20112;-68
2021/04/25 01:31:46;;;;;;;6.53;0.43;;;;;;;5.52;35.87;102664.78;5009378;28;20033;-69
2021/04/25 01:34:11;;;;;;;11.38;0.32;;;;;;;5.43;36.43;102659.50;4996166;28;20189;-69
2021/04/25 01:36:37;;;;;;;4.32;1.30;;;;;;;4.77;37.83;102656.16;5012363;28;20030;-75
2021/04/25 01:39:05;;;;;;;7.18;0.20;;;;;;;4.67;37.80;102659.44;4997718;28;20117;-72
2021/04/25 01:41:31;;;;;;;2.60;0.10;;;;;;;4.61;38.21;102655.06;5015226;28;20099;-72
2021/04/25 01:43:56;;;;;;;10.20;0.75;;;;;;;4.88;37.22;102664.06;5012435;28;20034;-73
2021/04/25 01:46:22;;;;;;;6.40;0.38;;;;;;;5.05;37.34;102662.56;5014284;28;20517;-73
2021/04/25 01:48:47;;;;;;;8.30;0.50;;;;;;;5.29;36.75;102658.50;4981984;28;20120;-73
2021/04/25 01:51:13;;;;;;;3.97;0.30;;;;;;;5.17;36.37;102661.84;5016353;28;20111;-72
2021/04/25 01:53:38;;;;;;;3.05;0.22;;;;;;;5.28;35.87;102656.75;5019758;28;20029;-73
2021/04/25 01:56:05;;;;;;;1.65;0.30;;;;;;;4.79;36.86;102655.31;5000600;28;20037;-73
2021/04/25 01:58:30;;;;;;;5.85;0.28;;;;;;;4.75;36.88;102653.53;5006182;28;20092;-68
2021/04/25 02:00:56;;;;;;;2.20;0.13;;;;;;;5.14;36.17;102651.41;5015267;28;20034;-68
2021/04/25 02:03:24;;;;;;;2.47;0.10;;;;;;;4.92;36.55;102656.38;5015954;28;20690;-69
2021/04/25 02:05:50;;;;;;;5.35;0.73;;;;;;;5.33;35.84;102650.78;5012662;28;20025;-69
2021/04/25 02:08:16;;;;;;;4.25;0.38;;;;;;;5.02;36.43;102646.97;5014330;28;20037;-68
2021/04/25 02:10:43;;;;;;;1.98;0.10;;;;;;;4.77;36.96;102650.97;4998925;28;20041;-70
2021/04/25 02:13:09;;;;;;;8.80;0.38;;;;;;;4.85;36.86;102651.91;5012185;28;20517;-72
2021/04/25 02:15:35;;;;;;;10.05;0.68;;;;;;;5.04;36.50;102651.31;4996759;28;20036;-71
2021/04/25 02:18:02;;;;;;;5.00;0.82;;;;;;;4.77;37.15;102650.97;5015431;28;20037;-70
2021/04/25 02:20:28;;;;;;;2.28;0.28;;;;;;;4.89;36.57;102650.28;5004901;28;20030;-71
2021/04/25 02:22:55;;;;;;;7.05;0.35;;;;;;;4.92;36.21;102653.78;5006931;28;20546;-70
2021/04/25 02:25:22;;;;;;;13.45;0.30;;;;;;;4.95;36.04;102645.19;5013917;28;20026;-71
2021/04/25 02:27:48;;;;;;;3.28;0.30;;;;;;;4.35;36.91;102652.13;4990968;28;20040;-71
2021/04/25 02:30:17;;;;;;;1.90;0.30;;;;;;;4.49;37.25;102654.91;5014933;28;20038;-71
2021/04/25 02:32:43;;;;;;;4.32;0.50;;;;;;;4.71;36.53;102651.75;5000568;28;20037;-71
2021/04/25 02:35:11;;;;;;;3.30;0.30;;;;;;;4.84;36.27;102640.69;5017737;28;20101;-71
2021/04/25 02:37:37;;;;;;;2.42;0.30;;;;;;;4.83;36.25;102651.91;5017332;28;20142;-71
2021/04/25 02:40:08;;;;;;;4.53;0.30;;;;;;;4.87;35.97;102644.16;5014713;28;20045;-67
2021/04/25 02:42:34;;;;;;;4.25;0.15;;;;;;;4.48;36.79;102642.81;5015782;28;20034;-67
2021/04/25 02:45:00;;;;;;;6.07;0.22;;;;;;;4.57;36.63;102650.69;4998576;28;20038;-68
2021/04/25 02:47:26;;;;;;;7.47;0.28;;;;;;;4.54;36.87;102650.63;5015034;28;20040;-67
2021/04/25 02:49:51;;;;;;;6.88;0.25;;;;;;;4.84;36.84;102637.22;5006249;28;20037;-67
2021/04/25 02:52:17;;;;;;;7.18;0.30;;;;;;;4.76;37.05;102637.13;5016511;28;20076;-74
2021/04/25 02:54:42;;;;;;;8.68;0.68;;;;;;;5.07;36.33;102636.66;4997834;28;20034;-74
2021/04/25 02:57:08;;;;;;;2.17;0.30;;;;;;;5.01;36.58;102637.44;5017913;28;20022;-73
2021/04/25 02:59:33;;;;;;;2.55;0.30;;;;;;;5.17;36.20;102626.41;4999168;28;20414;-73
2021/04/25 03:01:59;;;;;;;8.40;0.63;;;;;;;5.11;36.79;102628.94;5012637;28;20040;-74
2021/04/25 03:04:24;;;;;;;6.72;0.43;;;;;;;5.18;36.68;102633.31;5000735;28;20041;-73
2021/04/25 03:06:50;;;;;;;4.35;0.30;;;;;;;5.17;36.81;102634.19;5013671;28;20041;-71
2021/04/25 03:09:15;;;;;;;1.73;0.20;;;;;;;5.25;36.97;102627.34;5004829;28;20056;-72
2021/04/25 03:11:41;;;;;;;1.20;0.10;;;;;;;5.31;36.30;102633.47;5018752;28;20131;-70
2021/04/25 03:14:06;;;;;;;3.88;0.20;;;;;;;5.49;36.37;102633.63;5005243;28;20101;-70
2021/04/25 03:16:32;;;;;;;3.38;0.43;;;;;;;5.23;36.79;102636.88;4994952;28;20069;-71
2021/04/25 03:18:57;;;;;;;10.30;0.40;;;;;;;4.58;37.29;102626.53;5013726;28;20569;-71
2021/04/25 03:21:23;;;;;;;6.05;1.00;;;;;;;4.51;37.32;102616.94;5015681;28;20052;-71
2021/04/25 03:23:48;;;;;;;3.65;0.90;;;;;;;4.78;36.88;102621.59;5014160;28;20038;-71
2021/04/25 03:26:13;;;;;;;5.72;0.32;;;;;;;4.72;36.59;102617.25;5014287;28;20036;-71
2021/04/25 03:28:39;;;;;;;5.93;0.45;;;;;;;4.89;36.51;102620.03;5013851;28;20536;-71
2021/04/25 03:31:04;;;;;;;2.10;0.20;;;;;;;4.58;36.82;102624.81;5017744;28;20127;-71
2021/04/25 03:33:30;;;;;;;5.60;0.60;;;;;;;4.22;37.26;102625.19;5013062;28;20030;-70
2021/04/25 03:35:56;;;;;;;4.22;0.57;;;;;;;5.08;36.06;102621.13;5013577;28;20037;-71
2021/04/25 03:38:25;;;;;;;8.95;0.40;;;;;;;4.61;36.90;102627.44;4999080;28;20033;-71
2021/04/25 03:40:50;;;;;;;1.13;0.20;;;;;;;4.70;36.26;102621.53;5012277;28;20018;-71
2021/04/25 03:43:15;;;;;;;8.43;0.47;;;;;;;5.00;35.50;102617.59;5013210;28;20038;-70
2021/04/25 03:45:41;;;;;;;2.22;0.10;;;;;;;5.22;35.39;102614.38;5000480;28;20033;-71
2021/04/25 03:48:07;;;;;;;3.95;0.35;;;;;;;5.24;35.75;102616.97;5004696;28;20576;-70
2021/04/25 03:50:32;;;;;;;4.50;0.52;;;;;;;5.43;35.43;102612.81;5013609;28;20048;-72
2021/04/25 03:52:58;;;;;;;2.55;0.30;;;;;;;4.99;36.42;102616.72;5014262;28;20113;-72
2021/04/25 03:55:24;;;;;;;4.28;0.50;;;;;;;5.11;36.26;102615.97;5014794;28;20030;-71
2021/04/25 03:57:51;;;;;;;5.72;0.52;;;;;;;5.02;36.68;102610.69;5014408;28;20402;-71
2021/04/25 04:00:18;;;;;;;9.02;0.60;;;;;;;5.20;36.25;102616.06;5014281;28;20534;-70
2021/04/25 04:02:43;;;;;;;3.80;0.22;;;;;;;5.47;35.84;102619.78;4998912;28;20037;-68
2021/04/25 04:05:09;;;;;;;5.47;0.40;;;;;;;4.89;37.06;102616.59;5012414;28;20134;-70
2021/04/25 04:07:35;;;;;;;5.82;0.30;;;;;;;5.34;36.16;102623.97;4993964;28;20041;-68
2021/04/25 04:10:01;;;;;;;2.80;0.15;;;;;;;5.33;36.41;102630.03;4999123;28;20036;-70
2021/04/25 04:12:26;;;;;;;2.22;0.20;;;;;;;5.09;36.86;102619.41;5012447;28;20029;-68
2021/04/25 04:14:52;;;;;;;1.70;0.32;;;;;;;5.20;36.65;102626.44;5014562;28;20129;-67
2021/04/25 04:17:18;;;;;;;5.63;0.40;;;;;;;5.40;36.45;102626.63;4999186;28;20059;-71
2021/04/25 04:19:44;;;;;;;4.47;0.13;;;;;;;5.11;36.56;102628.94;5013736;28;20080;-70
2021/04/25 04:22:09;;;;;;;5.00;0.40;;;;;;;5.21;36.08;102635.97;5015796;28;20492;-71
2021/04/25 04:24:34;;;;;;;6.88;0.73;;;;;;;5.18;35.83;102638.50;4993952;28;20033;-71
2021/04/25 04:27:00;;;;;;;3.40;0.20;;;;;;;5.39;35.48;102631.81;5011251;28;20034;-72
2021/04/25 04:29:27;;;;;;;1.13;0.15;;;;;;;5.33;35.58;102631.75;5013417;28;20018;-71
2021/04/25 04:31:53;;;;;;;2.45;0.38;;;;;;;4.86;35.64;102625.16;4995908;28;20056;-71
2021/04/25 04:34:19;;;;;;;6.03;0.52;;;;;;;5.39;34.68;102619.72;4996273;28;20048;-70
2021/04/25 04:36:45;;;;;;;5.55;0.85;;;;;;;5.03;35.48;102623.69;5006009;28;21330;-73
2021/04/25 04:39:11;;;;;;;3.45;0.30;;;;;;;5.39;34.77;102631.81;5013552;28;20095;-69
2021/04/25 04:41:36;;;;;;;3.25;0.73;;;;;;;5.27;35.54;102627.38;4999714;28;20464;-68
2021/04/25 04:44:02;;;;;;;3.25;0.30;;;;;;;5.17;35.59;102629.00;5003654;28;20037;-69
2021/04/25 04:46:27;;;;;;;3.53;0.30;;;;;;;5.65;34.57;102630.31;5013828;28;20064;-69
2021/04/25 04:48:53;;;;;;;1.92;0.10;;;;;;;5.53;34.72;102622.44;5011524;28;20038;-69
2021/04/25 04:51:18;;;;;;;4.90;0.57;;;;;;;5.00;35.40;102623.63;4993960;28;20029;-68
2021/04/25 04:53:44;;;;;;;6.15;0.30;;;;;;;5.37;35.20;102633.50;4996037;28;20034;-70
2021/04/25 04:56:09;;;;;;;6.63;0.65;;;;;;;5.40;35.60;102638.75;5011392;28;20029;-70
2021/04/25 04:58:35;;;;;;;1.52;0.20;;;;;;;5.66;35.04;102631.22;4996832;28;20068;-71
2021/04/25 05:01:01;;;;;;;4.40;0.57;;;;;;;5.74;35.12;102633.88;5014232;28;20128;-71
2021/04/25 05:03:27;;;;;;;1.50;0.28;;;;;;;5.22;35.85;102634.25;5015390;28;20116;-70
2021/04/25 05:05:52;;;;;;;3.15;0.20;;;;;;;5.66;35.46;102639.84;5010869;28;20037;-70
2021/04/25 05:08:17;;;;;;;6.38;0.73;;;;;;;5.69;35.35;102635.56;5012221;28;20044;-70
2021/04/25 05:10:43;;;;;;;3.45;0.60;;;;;;;5.77;35.09;102636.47;5011128;28;20116;-69
2021/04/25 05:13:10;;;;;;;4.55;0.30;;;;;;;5.79;35.53;102639.94;5013168;28;20044;-70
2021/04/25 05:15:40;;;;;;;4.53;0.40;;;;;;;5.92;35.62;102646.97;5010998;28;20038;-69
2021/04/25 05:18:06;;;;;;;1.20;0.30;;;;;;;6.04;35.13;102648.81;5012495;28;20064;-69
2021/04/25 05:20:32;;;;;;;8.35;0.40;;;;;;;5.47;36.08;102645.72;5012854;28;20648;-69
2021/04/25 05:22:59;;;;;;;4.00;0.40;;;;;;;5.71;35.76;102654.59;5012329;28;20140;-69
2021/04/25 05:25:25;;;;;;;3.17;0.28;;;;;;;5.53;35.55;102650.97;5013604;28;20407;-69
2021/04/25 05:27:51;;;;;;;10.15;0.50;;;;;;;5.87;34.36;102649.53;4999339;28;20166;-68
2021/04/25 05:30:17;;;;;;;4.70;0.50;;;;;;;5.81;34.71;102652.06;5016326;28;20073;-69
2021/04/25 05:32:43;;;;;;;4.07;0.88;;;;;;;6.03;34.11;102642.72;5005619;28;20033;-70
2021/04/25 05:35:10;;;;;;;1.75;0.30;;;;;;;5.82;34.35;102650.38;5018417;28;20048;-71
2021/04/25 05:37:36;;;;;;;6.13;0.47;;;;;;;5.96;34.28;102645.28;5018149;28;20087;-68
2021/04/25 05:40:02;;;;;;;1.95;0.10;;;;;;;5.87;34.47;102649.53;5017529;28;20065;-68
2021/04/25 05:42:27;;;;;;;5.13;0.32;;;;;;;6.09;34.28;102637.59;4998987;28;20052;-70
2021/04/25 05:44:54;;;;;;;2.47;0.30;;;;;;;6.12;34.44;102641.06;5017767;28;20042;-69
2021/04/25 05:47:20;;;;;;;2.90;0.30;;;;;;;6.35;33.65;102649.94;5016881;28;20033;-68
2021/04/25 05:49:45;;;;;;;5.18;0.43;;;;;;;6.41;33.91;102649.94;5016221;28;20542;-69
2021/04/25 05:52:11;;;;;;;8.23;0.30;;;;;;;6.14;34.48;102645.41;5017201;28;20049;-70
2021/04/25 05:54:36;;;;;;;6.07;0.30;;;;;;;6.26;34.39;102652.41;5018757;28;20042;-70
2021/04/25 05:57:02;;;;;;;5.00;0.28;;;;;;;6.39;34.64;102650.78;5003209;28;20065;-69
2021/04/25 05:59:28;;;;;;;5.45;0.30;;;;;;;6.63;34.39;102650.94;5016146;28;20026;-70
2021/04/25 06:01:53;;;;;;;2.83;0.30;;;;;;;6.49;34.44;102663.84;5017739;28;20038;-67
2021/04/25 06:04:19;;;;;;;7.57;1.40;;;;;;;6.53;35.26;102658.66;5019175;28;20125;-67
2021/04/25 06:06:45;;;;;;;3.88;0.52;;;;;;;6.06;36.05;102658.34;5018017;28;20160;-68
2021/04/25 06:09:11;;;;;;;5.13;0.20;;;;;;;6.56;35.31;102661.28;5018459;28;20379;-67
2021/04/25 06:11:36;;;;;;;5.28;0.40;;;;;;;6.55;35.10;102659.53;5018669;28;20063;-67
2021/04/25 06:14:04;;;;;;;6.05;0.30;;;;;;;6.54;33.74;102657.81;4984038;28;20780;-68
2021/04/25 06:16:30;;;;;;;4.65;0.47;;;;;;;6.25;32.38;102661.06;5000482;28;20117;-68
2021/04/25 06:18:55;;;;;;;3.67;0.40;;;;;;;6.17;32.19;102660.13;5013775;28;20191;-68
2021/04/25 06:21:21;;;;;;;0.43;0.20;;;;;;;6.48;31.46;102661.22;5017197;28;20029;-68
2021/04/25 06:23:48;;;;;;;4.10;0.20;;;;;;;6.40;31.82;102668.13;5017261;28;20029;-67
2021/04/25 06:26:13;;;;;;;5.50;0.32;;;;;;;6.90;31.50;102672.72;5015561;28;20056;-68
2021/04/25 06:28:39;;;;;;;3.67;0.20;;;;;;;7.25;30.70;102670.22;5018076;28;20037;-68
2021/04/25 06:31:04;;;;;;;4.93;0.52;;;;;;;7.30;31.42;102671.09;5015871;28;20368;-69
2021/04/25 06:33:30;;;;;;;4.88;0.30;;;;;;;7.57;30.92;102672.06;5014852;28;20033;-68
2021/04/25 06:35:56;;;;;;;1.05;0.20;;;;;;;7.58;31.49;102663.41;5012550;28;20108;-68
2021/04/25 06:38:22;;;;;;;3.95;0.55;;;;;;;7.71;31.31;102685.06;5015404;28;20029;-68
2021/04/25 06:40:49;;;;;;;3.67;0.22;;;;;;;7.52;32.14;102673.75;5011919;28;20036;-68
2021/04/25 06:43:14;;;;;;;11.85;0.55;;;;;;;7.01;32.53;102664.97;4995967;28;20068;-68
2021/04/25 06:45:40;;;;;;;1.70;0.10;;;;;;;7.47;31.81;102667.69;5015379;28;20053;-68
2021/04/25 06:48:06;;;;;;;2.47;0.30;;;;;;;7.28;32.73;102671.97;5016870;28;20029;-68
2021/04/25 06:50:31;;;;;;;7.22;0.85;;;;;;;7.62;32.11;102672.91;4998577;28;20157;-68
2021/04/25 06:52:57;;;;;;;4.88;0.10;;;;;;;7.49;32.81;102671.16;5015077;28;20520;-68
2021/04/25 06:55:24;;;;;;;6.75;0.77;;;;;;;7.65;31.67;102672.94;5018584;28;20453;-67
2021/04/25 06:57:50;;;;;;;4.53;0.40;;;;;;;7.47;32.03;102678.09;5015786;28;20075;-68
2021/04/25 07:00:19;;;;;;;4.32;0.52;;;;;;;6.72;32.06;102670.91;5014555;28;20065;-67
2021/04/25 07:02:45;;;;;;;1.90;0.13;;;;;;;7.17;31.12;102678.88;4996108;28;20036;-67
2021/04/25 07:05:11;;;;;;;4.35;0.20;;;;;;;7.62;30.12;102679.88;5000432;28;20448;-67
2021/04/25 07:07:37;;;;;;;6.65;1.67;;;;;;;7.83;30.01;102684.25;5016456;28;20045;-67
2021/04/25 07:10:04;;;;;;;4.68;0.22;;;;;;;7.67;30.38;102683.38;5015921;28;20069;-68
2021/04/25 07:12:29;;;;;;;3.97;0.40;;;;;;;7.84;29.87;102691.16;5013588;28;20068;-68
2021/04/25 07:14:57;;;;;;;3.20;0.10;;;;;;;8.44;29.59;102686.78;5016076;28;20764;-68
2021/04/25 07:17:25;;;;;;;4.93;0.30;;;;;;;8.88;28.67;102682.34;5005193;28;20417;-67
2021/04/25 07:19:51;;;;;;;2.63;0.32;;;;;;;9.31;28.29;102688.22;5016041;28;20045;-67
2021/04/25 07:22:16;;;;;;;2.72;0.25;;;;;;;9.18;28.50;102691.75;5014241;28;20040;-68
2021/04/25 07:24:42;;;;;;;5.53;0.40;;;;;;;8.42;29.39;102704.16;5000368;28;20069;-68
2021/04/25 07:27:07;;;;;;;5.32;0.30;;;;;;;8.85;28.90;102701.50;5013514;28;20056;-69
2021/04/25 07:29:33;;;;;;;1.70;0.40;;;;;;;8.19;30.68;102704.19;5014189;28;20033;-68
2021/04/25 07:31:59;;;;;;;6.05;0.20;;;;;;;7.81;31.18;102694.66;5014832;28;20542;-68
2021/04/25 07:34:25;;;;;;;2.78;0.20;;;;;;;7.46;32.08;102707.56;5012736;28;20494;-68
2021/04/25 07:36:50;;;;;;;7.57;0.55;;;;;;;7.23;32.77;102710.97;5000051;28;20481;-69
2021/04/25 07:39:16;;;;;;;3.40;0.30;;;;;;;7.61;31.56;102712.84;4998816;28;20034;-67
2021/04/25 07:41:42;;;;;;;10.82;0.73;;;;;;;7.85;31.05;102713.75;5001717;28;20063;-68
2021/04/25 07:44:07;;;;;;;5.50;0.20;;;;;;;7.73;31.30;102707.66;5012546;28;20033;-69
2021/04/25 07:46:33;;;;;;;3.95;0.52;;;;;;;8.41;30.82;102712.00;5018105;28;20057;-68
2021/04/25 07:48:58;;;;;;;4.40;0.63;;;;;;;8.49;31.38;102713.69;5013135;28;20030;-67
2021/04/25 07:51:24;;;;;;;5.80;0.35;;;;;;;8.44;30.60;102706.75;5013759;28;20035;-68
2021/04/25 07:53:52;;;;;;;3.25;0.57;;;;;;;9.24;29.61;102707.38;5015993;28;20037;-67
2021/04/25 07:56:18;;;;;;;4.25;0.40;;;;;;;9.47;28.97;102707.25;5012266;28;20048;-68
2021/04/25 07:58:43;;;;;;;4.70;0.20;;;;;;;9.22;29.93;102708.28;4982269;28;20017;-67
2021/04/25 08:01:09;;;;;;;2.00;0.10;;;;;;;8.46;30.63;102705.03;5012440;28;20402;-68
2021/04/25 08:03:34;;;;;;;4.10;0.52;;;;;;;12.02;26.92;102701.81;5011772;28;20030;-68
2021/04/25 08:06:01;;;;;;;4.07;0.30;;;;;;;14.96;21.78;102688.00;5012324;28;20687;-67
2021/04/25 08:08:26;;;;;;;3.13;0.20;;;;;;;17.15;19.39;102688.50;5015633;28;20044;-68
2021/04/25 08:10:52;;;;;;;2.80;0.10;;;;;;;14.75;20.68;102697.41;5004263;28;20045;-68
2021/04/25 08:13:17;;;;;;;7.03;1.10;;;;;;;11.55;24.50;102699.91;5015627;28;20770;-68
2021/04/25 08:15:43;;;;;;;3.47;0.57;;;;;;;10.30;26.60;102703.16;5012119;28;20025;-68
2021/04/25 08:18:09;;;;;;;5.22;0.75;;;;;;;9.82;27.86;102703.56;5011266;28;20052;-68
2021/04/25 08:20:34;;;;;;;2.03;0.30;;;;;;;9.21;29.62;102704.81;5012321;28;20271;-68
2021/04/25 08:23:00;;;;;;;7.10;0.35;;;;;;;11.77;26.89;102705.69;5011666;28;20034;-69
2021/04/25 08:25:25;;;;;;;2.95;0.35;;;;;;;14.93;22.10;102703.06;5001903;28;20044;-69
2021/04/25 08:27:51;;;;;;;2.92;0.20;;;;;;;16.36;20.05;102701.97;5014678;28;20040;-69
2021/04/25 08:30:17;;;;;;;2.55;0.20;;;;;;;17.37;18.88;102704.38;5012102;28;20034;-68
2021/04/25 08:32:45;;;;;;;3.72;0.25;;;;;;;17.00;19.28;102704.03;5009586;28;20542;-68
2021/04/25 08:35:11;;;;;;;8.77;0.40;;;;;;;16.15;19.79;102702.69;5001701;28;20033;-68
2021/04/25 08:37:36;;;;;;;5.75;0.47;;;;;;;15.26;21.69;102710.84;5011843;28;20036;-68
2021/04/25 08:40:03;;;;;;;6.82;0.50;;;;;;;15.89;21.22;102707.06;5012535;28;20220;-68
2021/04/25 08:42:28;;;;;;;6.88;0.50;;;;;;;17.30;19.60;102709.03;5011274;28;20055;-68
2021/04/25 08:44:55;;;;;;;7.90;0.75;;;;;;;17.89;18.65;102707.53;4993317;28;20072;-68
2021/04/25 08:47:23;;;;;;;3.10;0.55;;;;;;;18.79;17.13;102708.03;5013182;28;20508;-68
2021/04/25 08:49:49;;;;;;;1.23;0.30;;;;;;;18.84;16.74;102710.47;5011526;28;20494;-68
2021/04/25 08:52:15;;;;;;;1.73;0.17;;;;;;;16.21;18.67;102718.31;5008701;28;20037;-69
2021/04/25 08:54:41;;;;;;;5.38;0.40;;;;;;;14.44;21.03;102721.09;4996448;28;20033;-68
2021/04/25 08:57:07;;;;;;;3.00;0.40;;;;;;;12.74;23.34;102714.53;5013664;28;20033;-68
2021/04/25 08:59:33;;;;;;;5.28;0.57;;;;;;;11.50;24.70;102727.91;5013125;28;20033;-68
2021/04/25 09:01:59;;;;;;;4.78;0.30;;;;;;;11.08;26.45;102725.00;5010086;28;20038;-66
2021/04/25 09:04:24;;;;;;;5.95;0.70;;;;;;;11.34;25.56;102727.28;5010952;28;20485;-69
2021/04/25 09:07:00;;;;;;;5.88;0.50;;;;;;;11.73;25.39;102733.69;5010632;28;20049;-67
2021/04/25 09:09:45;;;;;;;4.10;0.70;;;;;;;10.63;27.87;102741.16;4998621;28;20053;-67
2021/04/25 09:12:15;;;;;;;8.02;0.77;;;;;;;10.76;27.86;102739.28;4999360;28;20033;-66
2021/04/25 09:14:41;;;;;;;3.22;0.40;;;;;;;9.62;29.37;102753.28;5010464;28;20030;-67
2021/04/25 09:17:08;;;;;;;1.45;0.20;;;;;;;9.45;30.32;102742.94;5011154;28;20026;-67
2021/04/25 09:19:57;;;;;;;6.60;0.70;;;;;;;9.22;30.62;102756.09;5009262;28;20044;-69
2021/04/25 09:22:43;;;;;;;4.93;0.40;;;;;;;9.56;29.79;102750.72;5010429;28;20040;-68
2021/04/25 09:25:11;;;;;;;4.30;0.63;;;;;;;9.47;30.10;102761.19;4984553;28;20033;-66
2021/04/25 09:27:39;;;;;;;5.20;0.55;;;;;;;10.71;29.33;102751.56;4990553;28;20030;-66
2021/04/25 09:30:07;;;;;;;4.13;0.30;;;;;;;10.80;28.13;102757.53;4997063;28;20049;-68
2021/04/25 09:32:33;;;;;;;3.03;0.45;;;;;;;11.41;27.36;102753.34;4997768;28;20029;-67
2021/04/25 09:35:08;;;;;;;10.40;0.75;;;;;;;11.53;27.68;102746.19;5009724;28;20038;-68
2021/04/25 09:37:35;;;;;;;4.55;0.30;;;;;;;13.24;25.31;102738.84;5008316;28;20034;-68
2021/04/25 09:40:03;;;;;;;8.30;0.50;;;;;;;12.71;26.38;102749.53;5012318;28;20064;-68
2021/04/25 09:42:30;;;;;;;11.18;0.55;;;;;;;12.29;26.56;102747.66;5012324;28;20045;-69
2021/04/25 09:44:55;;;;;;;3.33;0.30;;;;;;;12.02;26.83;102743.75;5012150;28;20061;-68
2021/04/25 09:47:32;;;;;;;4.90;0.52;;;;;;;12.22;27.51;102740.78;5010496;28;20508;-67
2021/04/25 09:50:00;;;;;;;8.30;0.60;;;;;;;12.52;26.27;102748.13;5010145;28;20490;-66
2021/04/25 09:52:25;;;;;;;2.45;0.43;;;;;;;13.70;26.02;102743.09;4992049;28;20041;-68
2021/04/25 09:54:51;;;;;;;7.22;1.08;;;;;;;12.87;26.64;102747.47;5011226;28;20040;-67
2021/04/25 09:57:43;;;;;;;4.93;0.38;;;;;;;12.55;27.11;102743.69;5008710;28;20509;-67
2021/04/25 10:00:09;;;;;;;3.13;0.57;;;;;;;11.04;29.32;102743.34;5008301;28;20046;-67
2021/04/25 10:02:58;;;;;;;5.00;0.65;;;;;;;10.64;30.14;102735.06;4998829;28;20038;-67
2021/04/25 10:05:24;;;;;;;3.95;0.63;;;;;;;10.77;30.17;102736.66;5009902;28;20036;-69
2021/04/25 10:07:50;;;;;;;3.85;0.45;;;;;;;11.36;29.96;102739.44;4993692;28;20258;-67
2021/04/25 10:10:18;;;;;;;4.03;0.50;;;;;;;11.91;28.53;102737.81;5010471;28;20073;-68
2021/04/25 10:12:44;;;;;;;6.43;0.35;;;;;;;12.08;28.50;102738.38;5013403;28;20037;-69
2021/04/25 10:15:11;;;;;;;6.30;0.57;;;;;;;11.84;29.16;102733.53;5001606;28;20220;-68
2021/04/25 10:17:41;;;;;;;4.05;0.65;;;;;;;11.19;29.64;102738.81;5015120;28;20029;-68
2021/04/25 10:20:07;;;;;;;4.57;0.63;;;;;;;11.18;28.25;102737.09;4995430;28;20097;-69
2021/04/25 10:22:33;;;;;;;1.48;0.25;;;;;;;11.62;27.80;102738.19;4994438;28;20060;-68
2021/04/25 10:24:59;;;;;;;2.33;0.38;;;;;;;12.01;26.83;102736.75;5011900;28;20025;-68
2021/04/25 10:27:27;;;;;;;5.32;1.15;;;;;;;13.51;24.82;102722.44;5012760;28;22923;-68
2021/04/25 10:29:57;;;;;;;4.57;0.25;;;;;;;13.92;24.34;102725.91;4999328;28;20458;-68
2021/04/25 10:32:23;;;;;;;2.03;0.30;;;;;;;13.82;23.27;102732.28;5002204;28;20092;-68
2021/04/25 10:35:12;;;;;;;6.85;1.30;;;;;;;14.07;20.92;102726.41;5012644;28;20030;-68
2021/04/25 10:37:39;;;;;;;6.43;1.73;;;;;;;14.01;22.79;102722.19;5010990;28;20113;-68
2021/04/25 10:40:35;;;;;;;6.57;0.75;;;;;;;14.98;21.95;102724.84;5015621;28;20128;-68
2021/04/25 10:43:11;;;;;;;5.05;0.68;;;;;;;13.42;23.20;102727.06;4983234;28;20049;-69
2021/04/25 10:46:01;;;;;;;1.83;0.82;;;;;;;13.54;22.03;102726.78;4996691;28;20044;-69
2021/04/25 10:48:27;;;;;;;1.63;0.20;;;;;;;14.12;22.77;102724.50;5013183;28;20067;-69
2021/04/25 10:51:12;;;;;;;3.58;0.60;;;;;;;15.20;21.26;102729.47;5010769;28;20132;-68
2021/04/25 10:53:41;;;;;;;1.95;0.65;;;;;;;15.27;21.43;102728.41;5011595;28;20061;-69
2021/04/25 10:56:13;;;;;;;3.05;0.60;;;;;;;13.39;23.77;102732.41;5009596;28;20478;-68
2021/04/25 10:58:42;;;;;;;;;;;;;;;12.94;24.67;102728.09;5012742;28;20492;-68
2021/04/25 11:01:09;;;;;;;5.30;0.60;;;;;;;12.53;25.92;102729.72;5012328;28;20381;-69
2021/04/25 11:03:37;;;;;;;3.20;0.40;;;;;;;13.33;23.36;102730.75;5013081;28;20037;-68
2021/04/25 11:06:04;;;;;;;4.70;0.80;;;;;;;12.23;26.01;102724.16;5014164;28;20045;-68
2021/04/25 11:08:29;;;;;;;6.07;0.55;;;;;;;11.45;24.07;102726.22;4993506;28;20079;-68
2021/04/25 11:10:59;;;;;;;2.28;0.43;;;;;;;12.63;24.95;102726.03;5015165;28;20030;-69
2021/04/25 11:13:34;;;;;;;0.93;0.30;;;;;;;13.31;23.43;102724.66;5011971;28;20083;-68
2021/04/25 11:16:05;;;;;;;5.65;0.40;;;;;;;13.44;23.18;102720.00;5012718;28;20055;-68
2021/04/25 11:18:51;;;;;;;2.38;0.73;;;;;;;13.88;21.68;102716.38;5010919;28;20528;-68
2021/04/25 11:21:30;;;;;;;1.23;0.22;;;;;;;14.50;22.07;102714.78;4996899;28;20228;-67
2021/04/25 11:24:02;;;;;;;2.55;0.50;;;;;;;14.87;23.10;102717.25;5011350;28;20044;-69
2021/04/25 11:26:41;;;;;;;1.50;0.45;;;;;;;14.10;22.22;102721.09;4997901;28;20036;-68
2021/04/25 11:29:23;;;;;;;4.22;0.50;;;;;;;14.33;22.44;102717.84;5014628;28;20056;-68
2021/04/25 11:34:29;;;;;;;0.80;0.30;;;;;;;14.36;22.26;102717.75;5014692;28;20053;-68